sensor_id;sensor_type;location;lat;lon;timestamp;temperature;humidity
50586;DHT22;36542;51.700;8.846;2023-05-10T00:01:42;14.50;99.90
50586;DHT22;36542;51.700;8.846;2023-05-10T00:04:07;14.60;99.90
50586;DHT22;36542;51.700;8.846;2023-05-10T00:06:33;14.60;99.90
50586;DHT22;36542;51.700;8.846;2023-05-10T00:08:58;14.50;99.90
50586;DHT22;36542;51.700;8.846;2023-05-10T00:11:24;14.60;99.90
50586;DHT22;36542;51.700;8.846;2023-05-10T00:13:49;14.60;99.90
50586;DHT22;36542;51.700;8.846;2023-05-10T00:16:15;14.60;99.90
50586;DHT22;36542;51.700;8.846;2023-05-10T00:18:40;14.60;99.90
50586;DHT22;36542;51.700;8.846;2023-05-10T00:21:06;14.50;99.90
50586;DHT22;36542;51.700;8.846;2023-05-10T00:23:31;14.50;99.90
50586;DHT22;36542;51.700;8.846;2023-05-10T00:25:57;14.50;99.90
50586;DHT22;36542;51.700;8.846;2023-05-10T00:28:22;14.50;99.90
50586;DHT22;36542;51.700;8.846;2023-05-10T00:30:48;14.40;99.90
50586;DHT22;36542;51.700;8.846;2023-05-10T00:33:13;14.30;99.90
50586;DHT22;36542;51.700;8.846;2023-05-10T00:35:39;14.30;99.90
50586;DHT22;36542;51.700;8.846;2023-05-10T00:38:05;14.10;99.90
50586;DHT22;36542;51.700;8.846;2023-05-10T00:40:31;14.00;99.90
50586;DHT22;36542;51.700;8.846;2023-05-10T00:42:57;14.00;99.90
50586;DHT22;36542;51.700;8.846;2023-05-10T00:45:22;13.90;99.90
50586;DHT22;36542;51.700;8.846;2023-05-10T00:47:48;13.80;99.90
50586;DHT22;36542;51.700;8.846;2023-05-10T00:50:14;13.90;99.90
50586;DHT22;36542;51.700;8.846;2023-05-10T00:52:41;13.90;99.90
50586;DHT22;36542;51.700;8.846;2023-05-10T00:55:07;13.80;99.90
50586;DHT22;36542;51.700;8.846;2023-05-10T00:57:34;13.80;99.90
50586;DHT22;36542;51.700;8.846;2023-05-10T01:00:02;13.80;99.90
50586;DHT22;36542;51.700;8.846;2023-05-10T01:02:28;13.80;99.90
50586;DHT22;36542;51.700;8.846;2023-05-10T01:04:54;13.80;99.90
50586;DHT22;36542;51.700;8.846;2023-05-10T01:07:20;13.80;99.90
50586;DHT22;36542;51.700;8.846;2023-05-10T01:09:46;13.60;99.90
50586;DHT22;36542;51.700;8.846;2023-05-10T01:12:12;13.70;99.90
50586;DHT22;36542;51.700;8.846;2023-05-10T01:14:37;13.60;99.90
50586;DHT22;36542;51.700;8.846;2023-05-10T01:17:04;13.60;99.90
50586;DHT22;36542;51.700;8.846;2023-05-10T01:19:31;13.50;99.90
50586;DHT22;36542;51.700;8.846;2023-05-10T01:31:18;13.30;99.90
50586;DHT22;36542;51.700;8.846;2023-05-10T01:34:06;13.30;99.90
50586;DHT22;36542;51.700;8.846;2023-05-10T01:39:15;13.20;99.90
50586;DHT22;36542;51.700;8.846;2023-05-10T01:41:52;13.20;99.90
50586;DHT22;36542;51.700;8.846;2023-05-10T01:44:37;13.20;99.90
50586;DHT22;36542;51.700;8.846;2023-05-10T01:47:21;13.20;99.90
50586;DHT22;36542;51.700;8.846;2023-05-10T01:49:50;13.20;99.90
50586;DHT22;36542;51.700;8.846;2023-05-10T01:52:19;13.20;99.90
50586;DHT22;36542;51.700;8.846;2023-05-10T01:54:55;13.20;99.90
50586;DHT22;36542;51.700;8.846;2023-05-10T01:57:25;13.20;99.90
50586;DHT22;36542;51.700;8.846;2023-05-10T01:59:51;13.20;99.90
50586;DHT22;36542;51.700;8.846;2023-05-10T02:02:20;13.20;99.90
50586;DHT22;36542;51.700;8.846;2023-05-10T02:04:46;13.10;99.90
50586;DHT22;36542;51.700;8.846;2023-05-10T02:07:14;13.10;99.90
50586;DHT22;36542;51.700;8.846;2023-05-10T02:09:40;13.10;99.90
50586;DHT22;36542;51.700;8.846;2023-05-10T02:12:09;13.00;99.90
50586;DHT22;36542;51.700;8.846;2023-05-10T02:14:36;12.90;99.90
50586;DHT22;36542;51.700;8.846;2023-05-10T02:17:04;12.70;99.90
50586;DHT22;36542;51.700;8.846;2023-05-10T02:19:32;12.60;99.90
50586;DHT22;36542;51.700;8.846;2023-05-10T02:21:59;12.50;99.90
50586;DHT22;36542;51.700;8.846;2023-05-10T02:24:27;12.40;99.90
50586;DHT22;36542;51.700;8.846;2023-05-10T02:26:54;12.40;99.90
50586;DHT22;36542;51.700;8.846;2023-05-10T02:29:23;12.40;99.90
50586;DHT22;36542;51.700;8.846;2023-05-10T02:31:52;12.30;99.90
50586;DHT22;36542;51.700;8.846;2023-05-10T02:34:21;12.30;99.90
50586;DHT22;36542;51.700;8.846;2023-05-10T02:36:47;12.30;99.90
50586;DHT22;36542;51.700;8.846;2023-05-10T02:39:13;12.30;99.90
50586;DHT22;36542;51.700;8.846;2023-05-10T02:41:41;12.20;99.90
50586;DHT22;36542;51.700;8.846;2023-05-10T02:44:07;12.20;99.90
50586;DHT22;36542;51.700;8.846;2023-05-10T02:46:34;12.20;99.90
50586;DHT22;36542;51.700;8.846;2023-05-10T02:49:00;12.20;99.90
50586;DHT22;36542;51.700;8.846;2023-05-10T02:51:30;12.20;99.90
50586;DHT22;36542;51.700;8.846;2023-05-10T02:53:57;12.20;99.90
50586;DHT22;36542;51.700;8.846;2023-05-10T02:56:32;12.20;99.90
50586;DHT22;36542;51.700;8.846;2023-05-10T02:58:58;12.20;99.90
50586;DHT22;36542;51.700;8.846;2023-05-10T03:01:24;12.20;99.90
50586;DHT22;36542;51.700;8.846;2023-05-10T03:03:49;12.20;99.90
50586;DHT22;36542;51.700;8.846;2023-05-10T03:06:15;12.20;99.90
50586;DHT22;36542;51.700;8.846;2023-05-10T03:08:42;12.20;99.90
50586;DHT22;36542;51.700;8.846;2023-05-10T03:14:05;12.20;99.90
50586;DHT22;36542;51.700;8.846;2023-05-10T03:16:52;12.20;99.90
50586;DHT22;36542;51.700;8.846;2023-05-10T03:19:55;12.20;99.90
50586;DHT22;36542;51.700;8.846;2023-05-10T03:22:32;12.20;99.90
50586;DHT22;36542;51.700;8.846;2023-05-10T03:25:00;12.20;99.90
50586;DHT22;36542;51.700;8.846;2023-05-10T03:27:31;12.20;99.90
50586;DHT22;36542;51.700;8.846;2023-05-10T03:29:57;12.20;99.90
50586;DHT22;36542;51.700;8.846;2023-05-10T03:32:23;12.20;99.90
50586;DHT22;36542;51.700;8.846;2023-05-10T03:34:49;12.20;99.90
50586;DHT22;36542;51.700;8.846;2023-05-10T03:37:14;12.10;99.90
50586;DHT22;36542;51.700;8.846;2023-05-10T03:39:40;12.10;99.90
50586;DHT22;36542;51.700;8.846;2023-05-10T03:42:05;12.10;99.90
50586;DHT22;36542;51.700;8.846;2023-05-10T03:44:31;12.20;99.90
50586;DHT22;36542;51.700;8.846;2023-05-10T03:46:58;12.10;99.90
50586;DHT22;36542;51.700;8.846;2023-05-10T03:49:24;12.10;99.90
50586;DHT22;36542;51.700;8.846;2023-05-10T03:51:49;12.10;99.90
50586;DHT22;36542;51.700;8.846;2023-05-10T03:54:15;12.10;99.90
50586;DHT22;36542;51.700;8.846;2023-05-10T03:56:40;12.10;99.90
50586;DHT22;36542;51.700;8.846;2023-05-10T03:59:06;12.00;99.90
50586;DHT22;36542;51.700;8.846;2023-05-10T04:01:34;12.00;99.90
50586;DHT22;36542;51.700;8.846;2023-05-10T04:04:00;12.00;99.90
50586;DHT22;36542;51.700;8.846;2023-05-10T04:06:26;12.10;99.90
50586;DHT22;36542;51.700;8.846;2023-05-10T04:08:51;12.00;99.90
50586;DHT22;36542;51.700;8.846;2023-05-10T04:11:17;12.10;99.90
50586;DHT22;36542;51.700;8.846;2023-05-10T04:13:42;12.10;99.90
50586;DHT22;36542;51.700;8.846;2023-05-10T04:16:08;12.10;99.90
50586;DHT22;36542;51.700;8.846;2023-05-10T04:18:34;12.10;99.90
50586;DHT22;36542;51.700;8.846;2023-05-10T04:21:00;12.00;99.90
50586;DHT22;36542;51.700;8.846;2023-05-10T04:23:26;12.00;99.90
50586;DHT22;36542;51.700;8.846;2023-05-10T04:25:52;12.00;99.90
50586;DHT22;36542;51.700;8.846;2023-05-10T04:28:17;12.00;99.90
50586;DHT22;36542;51.700;8.846;2023-05-10T04:30:43;12.10;99.90
50586;DHT22;36542;51.700;8.846;2023-05-10T04:33:08;12.00;99.90
50586;DHT22;36542;51.700;8.846;2023-05-10T04:35:34;12.00;99.90
50586;DHT22;36542;51.700;8.846;2023-05-10T04:38:00;12.00;99.90
50586;DHT22;36542;51.700;8.846;2023-05-10T04:40:26;12.00;99.90
50586;DHT22;36542;51.700;8.846;2023-05-10T04:42:51;12.00;99.90
50586;DHT22;36542;51.700;8.846;2023-05-10T04:45:17;12.10;99.90
50586;DHT22;36542;51.700;8.846;2023-05-10T04:47:42;12.10;99.90
50586;DHT22;36542;51.700;8.846;2023-05-10T04:50:08;12.10;99.90
50586;DHT22;36542;51.700;8.846;2023-05-10T04:52:33;12.10;99.90
50586;DHT22;36542;51.700;8.846;2023-05-10T04:54:59;12.10;99.90
50586;DHT22;36542;51.700;8.846;2023-05-10T04:57:25;12.10;99.90
50586;DHT22;36542;51.700;8.846;2023-05-10T04:59:50;12.00;99.90
50586;DHT22;36542;51.700;8.846;2023-05-10T05:02:16;12.00;99.90
50586;DHT22;36542;51.700;8.846;2023-05-10T05:04:41;12.00;99.90
50586;DHT22;36542;51.700;8.846;2023-05-10T05:07:07;11.90;99.90
50586;DHT22;36542;51.700;8.846;2023-05-10T05:09:32;11.90;99.90
50586;DHT22;36542;51.700;8.846;2023-05-10T05:11:58;11.90;99.90
50586;DHT22;36542;51.700;8.846;2023-05-10T05:14:24;11.90;99.90
50586;DHT22;36542;51.700;8.846;2023-05-10T05:16:51;11.80;99.90
50586;DHT22;36542;51.700;8.846;2023-05-10T05:19:16;11.80;99.90
50586;DHT22;36542;51.700;8.846;2023-05-10T05:21:42;11.80;99.90
50586;DHT22;36542;51.700;8.846;2023-05-10T05:24:07;11.70;99.90
50586;DHT22;36542;51.700;8.846;2023-05-10T05:26:33;11.80;99.90
50586;DHT22;36542;51.700;8.846;2023-05-10T05:28:58;11.80;99.90
50586;DHT22;36542;51.700;8.846;2023-05-10T05:31:24;11.80;99.90
50586;DHT22;36542;51.700;8.846;2023-05-10T05:33:49;11.80;99.90
50586;DHT22;36542;51.700;8.846;2023-05-10T05:36:15;11.80;99.90
50586;DHT22;36542;51.700;8.846;2023-05-10T05:38:40;11.70;99.90
50586;DHT22;36542;51.700;8.846;2023-05-10T05:41:06;11.70;99.90
50586;DHT22;36542;51.700;8.846;2023-05-10T05:43:31;11.70;99.90
50586;DHT22;36542;51.700;8.846;2023-05-10T05:45:57;11.80;99.90
50586;DHT22;36542;51.700;8.846;2023-05-10T05:48:23;11.80;99.90
50586;DHT22;36542;51.700;8.846;2023-05-10T05:50:48;11.70;99.90
50586;DHT22;36542;51.700;8.846;2023-05-10T05:53:14;11.80;99.90
50586;DHT22;36542;51.700;8.846;2023-05-10T05:55:40;11.80;99.90
50586;DHT22;36542;51.700;8.846;2023-05-10T05:58:05;11.80;99.90
50586;DHT22;36542;51.700;8.846;2023-05-10T06:00:30;11.80;99.90
50586;DHT22;36542;51.700;8.846;2023-05-10T06:02:56;11.80;99.90
50586;DHT22;36542;51.700;8.846;2023-05-10T06:05:22;11.80;99.90
50586;DHT22;36542;51.700;8.846;2023-05-10T06:07:47;11.80;99.90
50586;DHT22;36542;51.700;8.846;2023-05-10T06:10:13;11.90;99.90
50586;DHT22;36542;51.700;8.846;2023-05-10T06:12:38;11.90;99.90
50586;DHT22;36542;51.700;8.846;2023-05-10T06:15:04;11.90;99.90
50586;DHT22;36542;51.700;8.846;2023-05-10T06:17:30;11.80;99.90
50586;DHT22;36542;51.700;8.846;2023-05-10T06:19:56;11.70;99.90
50586;DHT22;36542;51.700;8.846;2023-05-10T06:22:21;11.70;99.90
50586;DHT22;36542;51.700;8.846;2023-05-10T06:24:48;11.60;99.90
50586;DHT22;36542;51.700;8.846;2023-05-10T06:27:14;11.60;99.90
50586;DHT22;36542;51.700;8.846;2023-05-10T06:29:39;11.60;99.90
50586;DHT22;36542;51.700;8.846;2023-05-10T06:32:04;11.60;99.90
50586;DHT22;36542;51.700;8.846;2023-05-10T06:34:30;11.60;99.90
50586;DHT22;36542;51.700;8.846;2023-05-10T06:36:55;11.60;99.90
50586;DHT22;36542;51.700;8.846;2023-05-10T06:39:21;11.60;99.90
50586;DHT22;36542;51.700;8.846;2023-05-10T06:41:46;11.70;99.90
50586;DHT22;36542;51.700;8.846;2023-05-10T06:44:12;11.80;99.90
50586;DHT22;36542;51.700;8.846;2023-05-10T06:46:38;11.90;99.90
50586;DHT22;36542;51.700;8.846;2023-05-10T06:49:03;12.00;99.90
50586;DHT22;36542;51.700;8.846;2023-05-10T06:51:29;12.10;99.90
50586;DHT22;36542;51.700;8.846;2023-05-10T06:53:55;12.10;99.90
50586;DHT22;36542;51.700;8.846;2023-05-10T06:56:20;12.00;99.90
50586;DHT22;36542;51.700;8.846;2023-05-10T06:58:47;12.10;99.90
50586;DHT22;36542;51.700;8.846;2023-05-10T07:01:13;12.10;99.90
50586;DHT22;36542;51.700;8.846;2023-05-10T07:03:38;12.10;99.90
50586;DHT22;36542;51.700;8.846;2023-05-10T07:06:04;12.20;99.90
50586;DHT22;36542;51.700;8.846;2023-05-10T07:08:33;12.30;99.90
50586;DHT22;36542;51.700;8.846;2023-05-10T07:11:01;12.30;99.90
50586;DHT22;36542;51.700;8.846;2023-05-10T07:13:27;12.30;99.90
50586;DHT22;36542;51.700;8.846;2023-05-10T07:15:52;12.30;99.90
50586;DHT22;36542;51.700;8.846;2023-05-10T07:18:17;12.30;99.90
50586;DHT22;36542;51.700;8.846;2023-05-10T07:20:43;12.40;99.90
50586;DHT22;36542;51.700;8.846;2023-05-10T07:23:09;12.50;99.90
50586;DHT22;36542;51.700;8.846;2023-05-10T07:25:34;12.50;99.90
50586;DHT22;36542;51.700;8.846;2023-05-10T07:28:00;12.40;99.90
50586;DHT22;36542;51.700;8.846;2023-05-10T07:30:25;12.40;99.90
50586;DHT22;36542;51.700;8.846;2023-05-10T07:32:51;12.50;99.90
50586;DHT22;36542;51.700;8.846;2023-05-10T07:35:16;12.60;99.90
50586;DHT22;36542;51.700;8.846;2023-05-10T07:37:42;12.80;99.90
50586;DHT22;36542;51.700;8.846;2023-05-10T07:40:08;13.00;99.90
50586;DHT22;36542;51.700;8.846;2023-05-10T07:42:33;13.30;99.90
50586;DHT22;36542;51.700;8.846;2023-05-10T07:44:59;13.40;99.90
50586;DHT22;36542;51.700;8.846;2023-05-10T07:47:24;13.60;99.90
50586;DHT22;36542;51.700;8.846;2023-05-10T07:49:50;13.80;99.90
50586;DHT22;36542;51.700;8.846;2023-05-10T07:52:15;13.90;99.90
50586;DHT22;36542;51.700;8.846;2023-05-10T07:54:41;14.00;99.90
50586;DHT22;36542;51.700;8.846;2023-05-10T07:57:06;14.00;99.90
50586;DHT22;36542;51.700;8.846;2023-05-10T07:59:32;13.90;99.90
50586;DHT22;36542;51.700;8.846;2023-05-10T08:01:58;13.80;99.90
50586;DHT22;36542;51.700;8.846;2023-05-10T08:04:23;14.00;99.90
50586;DHT22;36542;51.700;8.846;2023-05-10T08:06:49;14.30;99.90
50586;DHT22;36542;51.700;8.846;2023-05-10T08:09:15;14.70;99.90
50586;DHT22;36542;51.700;8.846;2023-05-10T08:11:41;14.90;99.90
50586;DHT22;36542;51.700;8.846;2023-05-10T08:14:06;14.90;99.90
50586;DHT22;36542;51.700;8.846;2023-05-10T08:16:32;15.20;99.90
50586;DHT22;36542;51.700;8.846;2023-05-10T08:18:57;15.40;99.90
50586;DHT22;36542;51.700;8.846;2023-05-10T08:21:23;15.10;99.90
50586;DHT22;36542;51.700;8.846;2023-05-10T08:23:48;15.00;99.90
50586;DHT22;36542;51.700;8.846;2023-05-10T08:26:14;14.60;99.90
50586;DHT22;36542;51.700;8.846;2023-05-10T08:28:40;14.50;99.90
50586;DHT22;36542;51.700;8.846;2023-05-10T08:31:05;14.50;99.90
50586;DHT22;36542;51.700;8.846;2023-05-10T08:33:31;14.30;99.90
50586;DHT22;36542;51.700;8.846;2023-05-10T08:35:56;14.00;99.90
50586;DHT22;36542;51.700;8.846;2023-05-10T08:38:22;13.80;99.90
50586;DHT22;36542;51.700;8.846;2023-05-10T08:40:49;13.70;99.90
50586;DHT22;36542;51.700;8.846;2023-05-10T08:43:16;13.70;99.90
50586;DHT22;36542;51.700;8.846;2023-05-10T08:45:43;13.70;99.90
50586;DHT22;36542;51.700;8.846;2023-05-10T08:48:11;13.60;99.90
50586;DHT22;36542;51.700;8.846;2023-05-10T08:50:38;13.60;99.90
50586;DHT22;36542;51.700;8.846;2023-05-10T08:53:06;13.60;99.90
50586;DHT22;36542;51.700;8.846;2023-05-10T08:55:34;13.70;99.90
50586;DHT22;36542;51.700;8.846;2023-05-10T08:58:02;13.90;99.90
50586;DHT22;36542;51.700;8.846;2023-05-10T09:00:28;13.90;99.90
50586;DHT22;36542;51.700;8.846;2023-05-10T09:02:54;13.90;99.90
50586;DHT22;36542;51.700;8.846;2023-05-10T09:05:19;13.80;99.90
50586;DHT22;36542;51.700;8.846;2023-05-10T09:07:45;13.80;99.90
50586;DHT22;36542;51.700;8.846;2023-05-10T09:10:11;13.70;99.90
50586;DHT22;36542;51.700;8.846;2023-05-10T09:12:37;13.60;99.90
50586;DHT22;36542;51.700;8.846;2023-05-10T09:15:04;13.60;99.90
50586;DHT22;36542;51.700;8.846;2023-05-10T09:17:30;13.70;99.90
50586;DHT22;36542;51.700;8.846;2023-05-10T09:20:00;13.80;99.90
50586;DHT22;36542;51.700;8.846;2023-05-10T09:22:26;14.00;99.90
50586;DHT22;36542;51.700;8.846;2023-05-10T09:25:10;14.30;99.90
50586;DHT22;36542;51.700;8.846;2023-05-10T09:27:39;14.70;99.90
50586;DHT22;36542;51.700;8.846;2023-05-10T09:30:06;15.00;99.90
50586;DHT22;36542;51.700;8.846;2023-05-10T09:32:40;15.20;99.90
50586;DHT22;36542;51.700;8.846;2023-05-10T09:35:06;15.30;99.90
50586;DHT22;36542;51.700;8.846;2023-05-10T09:37:32;15.50;99.90
50586;DHT22;36542;51.700;8.846;2023-05-10T09:39:57;15.50;99.90
50586;DHT22;36542;51.700;8.846;2023-05-10T09:42:23;15.60;99.90
50586;DHT22;36542;51.700;8.846;2023-05-10T09:44:48;15.50;99.90
50586;DHT22;36542;51.700;8.846;2023-05-10T09:47:17;15.60;99.90
50586;DHT22;36542;51.700;8.846;2023-05-10T09:49:44;15.90;99.90
50586;DHT22;36542;51.700;8.846;2023-05-10T09:52:14;16.10;99.90
50586;DHT22;36542;51.700;8.846;2023-05-10T09:54:45;16.10;99.90
50586;DHT22;36542;51.700;8.846;2023-05-10T09:57:21;16.10;99.90
50586;DHT22;36542;51.700;8.846;2023-05-10T09:59:47;16.00;99.90
50586;DHT22;36542;51.700;8.846;2023-05-10T10:02:13;16.20;99.90
50586;DHT22;36542;51.700;8.846;2023-05-10T10:04:42;16.70;99.90
50586;DHT22;36542;51.700;8.846;2023-05-10T10:07:08;17.00;99.90
50586;DHT22;36542;51.700;8.846;2023-05-10T10:09:34;16.90;99.90
50586;DHT22;36542;51.700;8.846;2023-05-10T10:12:01;16.50;99.90
50586;DHT22;36542;51.700;8.846;2023-05-10T10:14:28;16.80;99.90
50586;DHT22;36542;51.700;8.846;2023-05-10T10:16:54;17.30;99.90
50586;DHT22;36542;51.700;8.846;2023-05-10T10:19:20;17.60;99.90
50586;DHT22;36542;51.700;8.846;2023-05-10T10:21:46;17.90;99.90
50586;DHT22;36542;51.700;8.846;2023-05-10T10:24:12;18.30;99.90
50586;DHT22;36542;51.700;8.846;2023-05-10T10:26:38;18.50;99.90
50586;DHT22;36542;51.700;8.846;2023-05-10T10:31:48;18.80;99.90
50586;DHT22;36542;51.700;8.846;2023-05-10T10:34:25;19.10;99.90
50586;DHT22;36542;51.700;8.846;2023-05-10T10:36:52;19.40;99.90
50586;DHT22;36542;51.700;8.846;2023-05-10T10:39:20;18.90;99.90
50586;DHT22;36542;51.700;8.846;2023-05-10T10:41:54;19.00;99.90
50586;DHT22;36542;51.700;8.846;2023-05-10T10:47:04;18.90;99.90
50586;DHT22;36542;51.700;8.846;2023-05-10T10:49:42;19.50;99.90
50586;DHT22;36542;51.700;8.846;2023-05-10T10:52:27;19.40;99.90
50586;DHT22;36542;51.700;8.846;2023-05-10T10:57:45;18.40;99.90
50586;DHT22;36542;51.700;8.846;2023-05-10T11:02:51;17.70;99.90
50586;DHT22;36542;51.700;8.846;2023-05-10T11:07:57;18.00;99.90
50586;DHT22;36542;51.700;8.846;2023-05-10T11:10:24;18.40;99.90
50586;DHT22;36542;51.700;8.846;2023-05-10T11:13:00;19.00;99.90
50586;DHT22;36542;51.700;8.846;2023-05-10T11:15:39;19.70;99.90
50586;DHT22;36542;51.700;8.846;2023-05-10T11:18:25;19.60;99.90
50586;DHT22;36542;51.700;8.846;2023-05-10T11:20:59;20.10;99.90
50586;DHT22;36542;51.700;8.846;2023-05-10T11:24:12;20.20;99.90
50586;DHT22;36542;51.700;8.846;2023-05-10T11:26:22;19.60;99.90
50586;DHT22;36542;51.700;8.846;2023-05-10T11:28:51;19.80;99.90
50586;DHT22;36542;51.700;8.846;2023-05-10T11:31:17;19.90;99.90
50586;DHT22;36542;51.700;8.846;2023-05-10T11:33:48;19.00;99.90
50586;DHT22;36542;51.700;8.846;2023-05-10T11:36:18;18.00;99.90
50586;DHT22;36542;51.700;8.846;2023-05-10T11:38:44;17.70;99.90
50586;DHT22;36542;51.700;8.846;2023-05-10T11:41:11;18.20;99.90
50586;DHT22;36542;51.700;8.846;2023-05-10T11:43:38;18.30;99.90
50586;DHT22;36542;51.700;8.846;2023-05-10T11:46:06;18.30;99.90
50586;DHT22;36542;51.700;8.846;2023-05-10T11:48:31;18.20;99.90
50586;DHT22;36542;51.700;8.846;2023-05-10T11:50:57;18.20;99.90
50586;DHT22;36542;51.700;8.846;2023-05-10T11:53:25;18.10;99.90
50586;DHT22;36542;51.700;8.846;2023-05-10T11:55:51;17.90;99.90
50586;DHT22;36542;51.700;8.846;2023-05-10T11:58:18;17.90;99.90
50586;DHT22;36542;51.700;8.846;2023-05-10T12:00:44;18.00;99.90
50586;DHT22;36542;51.700;8.846;2023-05-10T12:03:10;18.20;99.90
50586;DHT22;36542;51.700;8.846;2023-05-10T12:05:36;18.30;99.90
50586;DHT22;36542;51.700;8.846;2023-05-10T12:08:12;18.20;99.90
50586;DHT22;36542;51.700;8.846;2023-05-10T12:10:38;18.50;99.90
50586;DHT22;36542;51.700;8.846;2023-05-10T12:13:03;18.70;99.90
50586;DHT22;36542;51.700;8.846;2023-05-10T12:15:29;18.80;99.90
50586;DHT22;36542;51.700;8.846;2023-05-10T12:17:54;18.70;99.90
50586;DHT22;36542;51.700;8.846;2023-05-10T12:20:23;18.80;99.90
50586;DHT22;36542;51.700;8.846;2023-05-10T12:22:54;19.20;99.90
50586;DHT22;36542;51.700;8.846;2023-05-10T12:25:21;19.30;99.90
50586;DHT22;36542;51.700;8.846;2023-05-10T12:27:52;19.20;99.90
50586;DHT22;36542;51.700;8.846;2023-05-10T12:32:47;18.60;99.90
50586;DHT22;36542;51.700;8.846;2023-05-10T12:35:12;18.00;99.90
50586;DHT22;36542;51.700;8.846;2023-05-10T12:37:38;17.60;99.90
50586;DHT22;36542;51.700;8.846;2023-05-10T12:40:07;17.10;99.90
50586;DHT22;36542;51.700;8.846;2023-05-10T12:42:34;16.60;99.90
50586;DHT22;36542;51.700;8.846;2023-05-10T12:45:01;16.50;99.90
50586;DHT22;36542;51.700;8.846;2023-05-10T12:47:27;16.50;99.90
50586;DHT22;36542;51.700;8.846;2023-05-10T12:49:53;17.00;99.90
50586;DHT22;36542;51.700;8.846;2023-05-10T12:52:18;17.60;99.90
50586;DHT22;36542;51.700;8.846;2023-05-10T12:54:44;18.20;99.90
50586;DHT22;36542;51.700;8.846;2023-05-10T12:57:09;18.00;99.90
50586;DHT22;36542;51.700;8.846;2023-05-10T12:59:35;17.70;99.90
50586;DHT22;36542;51.700;8.846;2023-05-10T13:02:01;17.10;99.90
50586;DHT22;36542;51.700;8.846;2023-05-10T13:04:26;16.60;99.90
50586;DHT22;36542;51.700;8.846;2023-05-10T13:06:51;16.60;99.90
50586;DHT22;36542;51.700;8.846;2023-05-10T13:09:17;16.60;99.90
50586;DHT22;36542;51.700;8.846;2023-05-10T13:11:42;16.90;99.90
50586;DHT22;36542;51.700;8.846;2023-05-10T13:14:08;17.20;99.90
50586;DHT22;36542;51.700;8.846;2023-05-10T13:16:34;17.00;99.90
50586;DHT22;36542;51.700;8.846;2023-05-10T13:18:59;17.20;99.90
50586;DHT22;36542;51.700;8.846;2023-05-10T13:21:25;17.40;99.90
50586;DHT22;36542;51.700;8.846;2023-05-10T13:23:50;17.90;99.90
50586;DHT22;36542;51.700;8.846;2023-05-10T13:26:16;17.80;99.90
50586;DHT22;36542;51.700;8.846;2023-05-10T13:28:41;18.20;99.90
50586;DHT22;36542;51.700;8.846;2023-05-10T13:31:07;18.20;99.90
50586;DHT22;36542;51.700;8.846;2023-05-10T13:33:33;18.50;99.90
50586;DHT22;36542;51.700;8.846;2023-05-10T13:35:58;18.80;99.90
50586;DHT22;36542;51.700;8.846;2023-05-10T13:38:24;18.90;99.90
50586;DHT22;36542;51.700;8.846;2023-05-10T13:40:49;19.00;99.90
50586;DHT22;36542;51.700;8.846;2023-05-10T13:43:20;18.80;99.90
50586;DHT22;36542;51.700;8.846;2023-05-10T13:45:45;18.60;99.90
50586;DHT22;36542;51.700;8.846;2023-05-10T13:48:11;18.90;99.90
50586;DHT22;36542;51.700;8.846;2023-05-10T13:50:36;19.00;99.90
50586;DHT22;36542;51.700;8.846;2023-05-10T13:53:02;19.30;99.90
50586;DHT22;36542;51.700;8.846;2023-05-10T13:55:27;19.30;99.90
50586;DHT22;36542;51.700;8.846;2023-05-10T13:57:53;19.10;99.90
50586;DHT22;36542;51.700;8.846;2023-05-10T14:00:19;18.90;99.90
50586;DHT22;36542;51.700;8.846;2023-05-10T14:02:44;18.90;99.90
50586;DHT22;36542;51.700;8.846;2023-05-10T14:05:10;18.70;99.90
50586;DHT22;36542;51.700;8.846;2023-05-10T14:07:35;18.80;99.90
50586;DHT22;36542;51.700;8.846;2023-05-10T14:10:01;18.70;99.90
50586;DHT22;36542;51.700;8.846;2023-05-10T14:12:27;18.70;99.90
50586;DHT22;36542;51.700;8.846;2023-05-10T14:14:52;18.60;99.90
50586;DHT22;36542;51.700;8.846;2023-05-10T14:17:18;18.50;99.90
50586;DHT22;36542;51.700;8.846;2023-05-10T14:19:44;18.40;99.90
50586;DHT22;36542;51.700;8.846;2023-05-10T14:22:10;18.30;99.90
50586;DHT22;36542;51.700;8.846;2023-05-10T14:24:35;18.30;99.90
50586;DHT22;36542;51.700;8.846;2023-05-10T14:27:01;18.10;99.90
50586;DHT22;36542;51.700;8.846;2023-05-10T14:29:26;17.70;99.90
50586;DHT22;36542;51.700;8.846;2023-05-10T14:31:52;17.10;99.90
50586;DHT22;36542;51.700;8.846;2023-05-10T14:34:17;16.00;99.90
50586;DHT22;36542;51.700;8.846;2023-05-10T14:36:43;15.20;99.90
50586;DHT22;36542;51.700;8.846;2023-05-10T14:39:08;14.70;99.90
50586;DHT22;36542;51.700;8.846;2023-05-10T14:41:35;14.50;99.90
50586;DHT22;36542;51.700;8.846;2023-05-10T14:44:00;14.30;99.90
50586;DHT22;36542;51.700;8.846;2023-05-10T14:46:28;14.20;99.90
50586;DHT22;36542;51.700;8.846;2023-05-10T14:48:55;14.10;99.90
50586;DHT22;36542;51.700;8.846;2023-05-10T14:51:20;14.00;99.90
50586;DHT22;36542;51.700;8.846;2023-05-10T14:53:47;13.80;99.90
50586;DHT22;36542;51.700;8.846;2023-05-10T14:56:14;13.70;99.90
50586;DHT22;36542;51.700;8.846;2023-05-10T14:58:39;13.70;99.90
50586;DHT22;36542;51.700;8.846;2023-05-10T15:01:05;13.70;99.90
50586;DHT22;36542;51.700;8.846;2023-05-10T15:03:30;13.70;99.90
50586;DHT22;36542;51.700;8.846;2023-05-10T15:05:56;13.70;99.90
50586;DHT22;36542;51.700;8.846;2023-05-10T15:08:23;13.60;99.90
50586;DHT22;36542;51.700;8.846;2023-05-10T15:10:50;13.70;99.90
50586;DHT22;36542;51.700;8.846;2023-05-10T15:13:16;13.80;99.90
50586;DHT22;36542;51.700;8.846;2023-05-10T15:15:41;13.90;99.90
50586;DHT22;36542;51.700;8.846;2023-05-10T15:18:07;14.00;99.90
50586;DHT22;36542;51.700;8.846;2023-05-10T15:20:33;14.10;99.90
50586;DHT22;36542;51.700;8.846;2023-05-10T15:22:59;14.20;99.90
50586;DHT22;36542;51.700;8.846;2023-05-10T15:25:24;14.20;99.90
50586;DHT22;36542;51.700;8.846;2023-05-10T15:27:50;14.20;99.90
50586;DHT22;36542;51.700;8.846;2023-05-10T15:30:15;14.30;99.90
50586;DHT22;36542;51.700;8.846;2023-05-10T15:32:41;14.50;99.90
50586;DHT22;36542;51.700;8.846;2023-05-10T15:35:08;14.60;99.90
50586;DHT22;36542;51.700;8.846;2023-05-10T15:37:35;14.60;99.90
50586;DHT22;36542;51.700;8.846;2023-05-10T15:40:01;14.70;99.90
50586;DHT22;36542;51.700;8.846;2023-05-10T15:42:29;14.60;99.90
50586;DHT22;36542;51.700;8.846;2023-05-10T15:44:56;14.60;99.90
50586;DHT22;36542;51.700;8.846;2023-05-10T15:47:21;14.90;99.90
50586;DHT22;36542;51.700;8.846;2023-05-10T15:49:47;15.10;99.90
50586;DHT22;36542;51.700;8.846;2023-05-10T15:52:12;15.20;99.90
50586;DHT22;36542;51.700;8.846;2023-05-10T15:54:38;15.10;99.90
50586;DHT22;36542;51.700;8.846;2023-05-10T15:57:04;15.30;99.90
50586;DHT22;36542;51.700;8.846;2023-05-10T15:59:29;15.10;99.90